sensor_id;sensor_type;location;lat;lon;timestamp;temperature;humidity
10828;DHT22;5467;59.334;13.512;2023-02-12T00:00:01;-1.80;99.90
10828;DHT22;5467;59.334;13.512;2023-02-12T00:02:28;-1.80;99.90
10828;DHT22;5467;59.334;13.512;2023-02-12T00:04:56;-1.70;99.90
10828;DHT22;5467;59.334;13.512;2023-02-12T00:07:24;-1.70;99.90
10828;DHT22;5467;59.334;13.512;2023-02-12T00:09:51;-1.70;99.90
10828;DHT22;5467;59.334;13.512;2023-02-12T00:12:19;-1.80;99.90
10828;DHT22;5467;59.334;13.512;2023-02-12T00:14:46;-1.80;99.90
10828;DHT22;5467;59.334;13.512;2023-02-12T00:17:13;-1.80;99.90
10828;DHT22;5467;59.334;13.512;2023-02-12T00:19:40;-1.60;99.90
10828;DHT22;5467;59.334;13.512;2023-02-12T00:22:07;-1.60;99.90
10828;DHT22;5467;59.334;13.512;2023-02-12T00:24:36;-1.70;99.90
10828;DHT22;5467;59.334;13.512;2023-02-12T00:27:03;-1.70;99.90
10828;DHT22;5467;59.334;13.512;2023-02-12T00:29:30;-1.70;99.90
10828;DHT22;5467;59.334;13.512;2023-02-12T00:31:57;-1.60;99.90
10828;DHT22;5467;59.334;13.512;2023-02-12T00:34:24;-1.60;99.90
10828;DHT22;5467;59.334;13.512;2023-02-12T00:36:51;-1.60;99.90
10828;DHT22;5467;59.334;13.512;2023-02-12T00:39:18;-1.60;99.90
10828;DHT22;5467;59.334;13.512;2023-02-12T00:41:47;-1.50;99.90
10828;DHT22;5467;59.334;13.512;2023-02-12T00:44:14;-1.40;99.90
10828;DHT22;5467;59.334;13.512;2023-02-12T00:46:42;-1.30;99.90
10828;DHT22;5467;59.334;13.512;2023-02-12T00:49:09;-1.30;99.90
10828;DHT22;5467;59.334;13.512;2023-02-12T00:51:36;-1.30;99.90
10828;DHT22;5467;59.334;13.512;2023-02-12T00:54:03;-1.40;99.90
10828;DHT22;5467;59.334;13.512;2023-02-12T00:56:31;-1.50;99.90
10828;DHT22;5467;59.334;13.512;2023-02-12T00:58:59;-1.50;99.90
10828;DHT22;5467;59.334;13.512;2023-02-12T01:01:26;-1.50;99.90
10828;DHT22;5467;59.334;13.512;2023-02-12T01:03:53;-1.40;99.90
10828;DHT22;5467;59.334;13.512;2023-02-12T01:06:21;-1.50;99.90
10828;DHT22;5467;59.334;13.512;2023-02-12T01:08:49;-1.50;99.90
10828;DHT22;5467;59.334;13.512;2023-02-12T01:11:17;-1.50;99.90
10828;DHT22;5467;59.334;13.512;2023-02-12T01:13:45;-1.50;99.90
10828;DHT22;5467;59.334;13.512;2023-02-12T01:16:15;-1.50;99.90
10828;DHT22;5467;59.334;13.512;2023-02-12T01:18:43;-1.50;99.90
10828;DHT22;5467;59.334;13.512;2023-02-12T01:21:12;-1.60;99.90
10828;DHT22;5467;59.334;13.512;2023-02-12T01:23:40;-1.60;99.90
10828;DHT22;5467;59.334;13.512;2023-02-12T01:26:08;-1.60;99.90
10828;DHT22;5467;59.334;13.512;2023-02-12T01:28:37;-1.60;99.90
10828;DHT22;5467;59.334;13.512;2023-02-12T01:31:08;-1.60;99.90
10828;DHT22;5467;59.334;13.512;2023-02-12T01:33:37;-1.50;99.90
10828;DHT22;5467;59.334;13.512;2023-02-12T01:36:05;-1.50;99.90
10828;DHT22;5467;59.334;13.512;2023-02-12T01:38:32;-1.60;99.90
10828;DHT22;5467;59.334;13.512;2023-02-12T01:41:03;-1.60;99.90
10828;DHT22;5467;59.334;13.512;2023-02-12T01:43:32;-1.60;99.90
10828;DHT22;5467;59.334;13.512;2023-02-12T01:46:00;-1.60;99.90
10828;DHT22;5467;59.334;13.512;2023-02-12T01:48:31;-1.50;99.90
10828;DHT22;5467;59.334;13.512;2023-02-12T01:51:01;-1.50;99.90
10828;DHT22;5467;59.334;13.512;2023-02-12T01:53:35;-1.30;99.90
10828;DHT22;5467;59.334;13.512;2023-02-12T01:56:06;-1.30;99.90
10828;DHT22;5467;59.334;13.512;2023-02-12T01:58:37;-1.30;99.90
10828;DHT22;5467;59.334;13.512;2023-02-12T02:01:10;-1.40;99.90
10828;DHT22;5467;59.334;13.512;2023-02-12T02:03:40;-1.50;99.90
10828;DHT22;5467;59.334;13.512;2023-02-12T02:06:11;-1.60;99.90
10828;DHT22;5467;59.334;13.512;2023-02-12T02:08:40;-1.60;99.90
10828;DHT22;5467;59.334;13.512;2023-02-12T02:11:08;-1.60;99.90
10828;DHT22;5467;59.334;13.512;2023-02-12T02:13:49;-1.60;99.90
10828;DHT22;5467;59.334;13.512;2023-02-12T02:16:34;-1.50;99.90
10828;DHT22;5467;59.334;13.512;2023-02-12T02:19:08;-1.50;99.90
10828;DHT22;5467;59.334;13.512;2023-02-12T02:25:17;-1.60;99.90
10828;DHT22;5467;59.334;13.512;2023-02-12T02:28:00;-1.40;99.90
10828;DHT22;5467;59.334;13.512;2023-02-12T02:30:33;-1.30;99.90
10828;DHT22;5467;59.334;13.512;2023-02-12T02:33:33;-1.30;99.90
10828;DHT22;5467;59.334;13.512;2023-02-12T02:36:13;-1.20;99.90
10828;DHT22;5467;59.334;13.512;2023-02-12T02:38:44;-1.10;99.90
10828;DHT22;5467;59.334;13.512;2023-02-12T02:41:19;-1.10;99.90
10828;DHT22;5467;59.334;13.512;2023-02-12T02:43:52;-1.10;99.90
10828;DHT22;5467;59.334;13.512;2023-02-12T02:46:26;-1.10;99.90
10828;DHT22;5467;59.334;13.512;2023-02-12T02:48:59;-1.20;99.90
10828;DHT22;5467;59.334;13.512;2023-02-12T02:51:30;-1.10;99.90
10828;DHT22;5467;59.334;13.512;2023-02-12T02:54:02;-1.20;99.90
10828;DHT22;5467;59.334;13.512;2023-02-12T02:56:32;-1.20;99.90
10828;DHT22;5467;59.334;13.512;2023-02-12T02:59:05;-1.20;99.90
10828;DHT22;5467;59.334;13.512;2023-02-12T03:01:39;-1.20;99.90
10828;DHT22;5467;59.334;13.512;2023-02-12T03:04:11;-1.20;99.90
10828;DHT22;5467;59.334;13.512;2023-02-12T03:06:45;-1.20;99.90
10828;DHT22;5467;59.334;13.512;2023-02-12T03:09:17;-1.30;99.90
10828;DHT22;5467;59.334;13.512;2023-02-12T03:11:46;-1.30;99.90
10828;DHT22;5467;59.334;13.512;2023-02-12T03:14:19;-1.30;99.90
10828;DHT22;5467;59.334;13.512;2023-02-12T03:16:53;-1.30;99.90
10828;DHT22;5467;59.334;13.512;2023-02-12T03:19:24;-1.30;99.90
10828;DHT22;5467;59.334;13.512;2023-02-12T03:21:56;-1.30;99.90
10828;DHT22;5467;59.334;13.512;2023-02-12T03:24:27;-1.30;99.90
10828;DHT22;5467;59.334;13.512;2023-02-12T03:27:03;-1.30;99.90
10828;DHT22;5467;59.334;13.512;2023-02-12T03:29:33;-1.30;99.90
10828;DHT22;5467;59.334;13.512;2023-02-12T03:32:21;-1.30;99.90
10828;DHT22;5467;59.334;13.512;2023-02-12T03:34:53;-1.20;99.90
10828;DHT22;5467;59.334;13.512;2023-02-12T03:37:27;-1.30;99.90
10828;DHT22;5467;59.334;13.512;2023-02-12T03:40:01;-1.30;99.90
10828;DHT22;5467;59.334;13.512;2023-02-12T03:42:37;-1.20;99.90
10828;DHT22;5467;59.334;13.512;2023-02-12T03:45:10;-1.30;99.90
10828;DHT22;5467;59.334;13.512;2023-02-12T03:47:45;-1.30;99.90
10828;DHT22;5467;59.334;13.512;2023-02-12T03:50:18;-1.30;99.90
10828;DHT22;5467;59.334;13.512;2023-02-12T03:52:46;-1.30;99.90
10828;DHT22;5467;59.334;13.512;2023-02-12T03:55:15;-1.30;99.90
10828;DHT22;5467;59.334;13.512;2023-02-12T03:57:45;-1.20;99.90
10828;DHT22;5467;59.334;13.512;2023-02-12T04:00:17;-1.30;99.90
10828;DHT22;5467;59.334;13.512;2023-02-12T04:02:46;-1.30;99.90
10828;DHT22;5467;59.334;13.512;2023-02-12T04:05:18;-1.30;99.90
10828;DHT22;5467;59.334;13.512;2023-02-12T04:07:46;-1.20;99.90
10828;DHT22;5467;59.334;13.512;2023-02-12T04:10:14;-1.30;99.90
10828;DHT22;5467;59.334;13.512;2023-02-12T04:12:48;-1.30;99.90
10828;DHT22;5467;59.334;13.512;2023-02-12T04:15:37;-1.30;99.90
10828;DHT22;5467;59.334;13.512;2023-02-12T04:18:14;-1.30;99.90
10828;DHT22;5467;59.334;13.512;2023-02-12T04:20:52;-1.30;99.90
10828;DHT22;5467;59.334;13.512;2023-02-12T04:23:31;-1.30;99.90
10828;DHT22;5467;59.334;13.512;2023-02-12T04:26:09;-1.30;99.90
10828;DHT22;5467;59.334;13.512;2023-02-12T04:28:46;-1.30;99.90
10828;DHT22;5467;59.334;13.512;2023-02-12T04:31:22;-1.30;99.90
10828;DHT22;5467;59.334;13.512;2023-02-12T04:33:58;-1.30;99.90
10828;DHT22;5467;59.334;13.512;2023-02-12T04:36:31;-1.40;99.90
10828;DHT22;5467;59.334;13.512;2023-02-12T04:39:01;-1.40;99.90
10828;DHT22;5467;59.334;13.512;2023-02-12T04:41:30;-1.40;99.90
10828;DHT22;5467;59.334;13.512;2023-02-12T04:43:57;-1.40;99.90
10828;DHT22;5467;59.334;13.512;2023-02-12T04:46:27;-1.30;99.90
10828;DHT22;5467;59.334;13.512;2023-02-12T04:48:57;-1.20;99.90
10828;DHT22;5467;59.334;13.512;2023-02-12T04:51:24;-1.20;99.90
10828;DHT22;5467;59.334;13.512;2023-02-12T04:53:52;-1.20;99.90
10828;DHT22;5467;59.334;13.512;2023-02-12T04:56:19;-1.30;99.90
10828;DHT22;5467;59.334;13.512;2023-02-12T04:58:46;-1.30;99.90
10828;DHT22;5467;59.334;13.512;2023-02-12T05:01:14;-1.30;99.90
10828;DHT22;5467;59.334;13.512;2023-02-12T05:03:41;-1.30;99.90
10828;DHT22;5467;59.334;13.512;2023-02-12T05:06:10;-1.30;99.90
10828;DHT22;5467;59.334;13.512;2023-02-12T05:08:37;-1.20;99.90
10828;DHT22;5467;59.334;13.512;2023-02-12T05:11:05;-1.20;99.90
10828;DHT22;5467;59.334;13.512;2023-02-12T05:13:33;-1.10;99.90
10828;DHT22;5467;59.334;13.512;2023-02-12T05:16:03;-1.10;99.90
10828;DHT22;5467;59.334;13.512;2023-02-12T05:18:34;-1.20;99.90
10828;DHT22;5467;59.334;13.512;2023-02-12T05:21:02;-1.20;99.90
10828;DHT22;5467;59.334;13.512;2023-02-12T05:23:33;-1.20;99.90
10828;DHT22;5467;59.334;13.512;2023-02-12T05:26:03;-1.20;99.90
10828;DHT22;5467;59.334;13.512;2023-02-12T05:28:30;-1.20;99.90
10828;DHT22;5467;59.334;13.512;2023-02-12T05:30:59;-1.20;99.90
10828;DHT22;5467;59.334;13.512;2023-02-12T05:33:27;-1.20;99.90
10828;DHT22;5467;59.334;13.512;2023-02-12T05:35:54;-1.20;99.90
10828;DHT22;5467;59.334;13.512;2023-02-12T05:38:21;-1.30;99.90
10828;DHT22;5467;59.334;13.512;2023-02-12T05:40:50;-1.30;99.90
10828;DHT22;5467;59.334;13.512;2023-02-12T05:43:17;-1.20;99.90
10828;DHT22;5467;59.334;13.512;2023-02-12T05:45:45;-1.30;99.90
10828;DHT22;5467;59.334;13.512;2023-02-12T05:48:12;-1.30;99.90
10828;DHT22;5467;59.334;13.512;2023-02-12T05:50:39;-1.30;99.90
10828;DHT22;5467;59.334;13.512;2023-02-12T05:53:07;-1.30;99.90
10828;DHT22;5467;59.334;13.512;2023-02-12T05:55:34;-1.30;99.90
10828;DHT22;5467;59.334;13.512;2023-02-12T05:58:03;-1.30;99.90
10828;DHT22;5467;59.334;13.512;2023-02-12T06:00:30;-1.30;99.90
10828;DHT22;5467;59.334;13.512;2023-02-12T06:02:57;-1.20;99.90
10828;DHT22;5467;59.334;13.512;2023-02-12T06:05:24;-1.00;99.90
10828;DHT22;5467;59.334;13.512;2023-02-12T06:07:51;-1.10;99.90
10828;DHT22;5467;59.334;13.512;2023-02-12T06:10:19;-1.10;99.90
10828;DHT22;5467;59.334;13.512;2023-02-12T06:12:46;-1.20;99.90
10828;DHT22;5467;59.334;13.512;2023-02-12T06:15:15;-1.30;99.90
10828;DHT22;5467;59.334;13.512;2023-02-12T06:17:42;-1.20;99.90
10828;DHT22;5467;59.334;13.512;2023-02-12T06:20:10;-1.20;99.90
10828;DHT22;5467;59.334;13.512;2023-02-12T06:22:37;-1.10;99.90
10828;DHT22;5467;59.334;13.512;2023-02-12T06:25:05;-1.10;99.90
10828;DHT22;5467;59.334;13.512;2023-02-12T06:27:32;-0.90;99.90
10828;DHT22;5467;59.334;13.512;2023-02-12T06:30:00;-1.10;99.90
10828;DHT22;5467;59.334;13.512;2023-02-12T06:32:29;-1.10;99.90
10828;DHT22;5467;59.334;13.512;2023-02-12T06:34:56;-1.20;99.90
10828;DHT22;5467;59.334;13.512;2023-02-12T06:37:23;-1.20;99.90
10828;DHT22;5467;59.334;13.512;2023-02-12T06:39:50;-1.30;99.90
10828;DHT22;5467;59.334;13.512;2023-02-12T06:42:18;-1.30;99.90
10828;DHT22;5467;59.334;13.512;2023-02-12T06:44:45;-1.40;99.90
10828;DHT22;5467;59.334;13.512;2023-02-12T06:47:13;-1.30;99.90
10828;DHT22;5467;59.334;13.512;2023-02-12T06:49:43;-1.40;99.90
10828;DHT22;5467;59.334;13.512;2023-02-12T06:52:10;-1.40;99.90
10828;DHT22;5467;59.334;13.512;2023-02-12T06:54:39;-1.40;99.90
10828;DHT22;5467;59.334;13.512;2023-02-12T06:57:07;-1.40;99.90
10828;DHT22;5467;59.334;13.512;2023-02-12T06:59:36;-1.40;99.90
10828;DHT22;5467;59.334;13.512;2023-02-12T07:02:03;-1.40;99.90
10828;DHT22;5467;59.334;13.512;2023-02-12T07:04:31;-1.40;99.90
10828;DHT22;5467;59.334;13.512;2023-02-12T07:07:00;-1.50;99.90
10828;DHT22;5467;59.334;13.512;2023-02-12T07:09:28;-1.50;99.90
10828;DHT22;5467;59.334;13.512;2023-02-12T07:11:58;-1.50;99.90
10828;DHT22;5467;59.334;13.512;2023-02-12T07:14:26;-1.50;99.90
10828;DHT22;5467;59.334;13.512;2023-02-12T07:16:53;-1.40;99.90
10828;DHT22;5467;59.334;13.512;2023-02-12T07:19:20;-1.30;99.90
10828;DHT22;5467;59.334;13.512;2023-02-12T07:21:48;-1.20;99.90
10828;DHT22;5467;59.334;13.512;2023-02-12T07:24:17;-1.10;99.90
10828;DHT22;5467;59.334;13.512;2023-02-12T07:26:45;-1.00;99.90
10828;DHT22;5467;59.334;13.512;2023-02-12T07:29:12;-1.00;99.90
10828;DHT22;5467;59.334;13.512;2023-02-12T07:31:40;-1.10;99.90
10828;DHT22;5467;59.334;13.512;2023-02-12T07:34:09;-1.00;99.90
10828;DHT22;5467;59.334;13.512;2023-02-12T07:36:36;-0.90;99.90
10828;DHT22;5467;59.334;13.512;2023-02-12T07:39:03;-1.00;99.90
10828;DHT22;5467;59.334;13.512;2023-02-12T07:41:34;-1.00;99.90
10828;DHT22;5467;59.334;13.512;2023-02-12T07:44:05;-1.10;99.90
10828;DHT22;5467;59.334;13.512;2023-02-12T07:46:39;-1.00;99.90
10828;DHT22;5467;59.334;13.512;2023-02-12T07:49:13;-0.90;99.90
10828;DHT22;5467;59.334;13.512;2023-02-12T07:51:41;-0.80;99.90
10828;DHT22;5467;59.334;13.512;2023-02-12T07:54:15;-0.80;99.90
10828;DHT22;5467;59.334;13.512;2023-02-12T07:56:45;-0.70;99.90
10828;DHT22;5467;59.334;13.512;2023-02-12T07:59:15;-0.50;99.90
10828;DHT22;5467;59.334;13.512;2023-02-12T08:01:46;-0.30;99.90
10828;DHT22;5467;59.334;13.512;2023-02-12T08:04:15;-0.10;99.90
10828;DHT22;5467;59.334;13.512;2023-02-12T08:06:44;0.10;99.90
10828;DHT22;5467;59.334;13.512;2023-02-12T08:09:13;0.40;99.90
10828;DHT22;5467;59.334;13.512;2023-02-12T08:11:44;0.60;99.90
10828;DHT22;5467;59.334;13.512;2023-02-12T08:14:14;0.80;99.90
10828;DHT22;5467;59.334;13.512;2023-02-12T08:16:42;1.00;99.90
10828;DHT22;5467;59.334;13.512;2023-02-12T08:19:10;1.10;99.90
10828;DHT22;5467;59.334;13.512;2023-02-12T08:21:37;1.30;99.90
10828;DHT22;5467;59.334;13.512;2023-02-12T08:24:05;1.40;99.90
10828;DHT22;5467;59.334;13.512;2023-02-12T08:26:34;1.50;99.90
10828;DHT22;5467;59.334;13.512;2023-02-12T08:29:05;1.70;99.90
10828;DHT22;5467;59.334;13.512;2023-02-12T08:31:34;1.80;99.90
10828;DHT22;5467;59.334;13.512;2023-02-12T08:34:02;1.80;99.90
10828;DHT22;5467;59.334;13.512;2023-02-12T08:36:34;1.90;99.90
10828;DHT22;5467;59.334;13.512;2023-02-12T08:39:05;2.00;99.90
10828;DHT22;5467;59.334;13.512;2023-02-12T08:41:33;2.10;99.90
10828;DHT22;5467;59.334;13.512;2023-02-12T08:44:09;2.20;99.90
10828;DHT22;5467;59.334;13.512;2023-02-12T08:46:38;2.30;99.90
10828;DHT22;5467;59.334;13.512;2023-02-12T08:49:07;2.40;99.90
10828;DHT22;5467;59.334;13.512;2023-02-12T08:51:37;2.30;99.90
10828;DHT22;5467;59.334;13.512;2023-02-12T08:54:06;2.40;99.90
10828;DHT22;5467;59.334;13.512;2023-02-12T08:56:33;2.40;99.90
10828;DHT22;5467;59.334;13.512;2023-02-12T08:59:03;2.40;99.90
10828;DHT22;5467;59.334;13.512;2023-02-12T09:01:33;2.40;99.90
10828;DHT22;5467;59.334;13.512;2023-02-12T09:04:00;2.50;99.90
10828;DHT22;5467;59.334;13.512;2023-02-12T09:06:28;2.60;99.90
10828;DHT22;5467;59.334;13.512;2023-02-12T09:08:57;2.70;99.90
10828;DHT22;5467;59.334;13.512;2023-02-12T09:11:26;2.70;99.90
10828;DHT22;5467;59.334;13.512;2023-02-12T09:13:56;2.70;99.90
10828;DHT22;5467;59.334;13.512;2023-02-12T09:16:25;2.70;99.90
10828;DHT22;5467;59.334;13.512;2023-02-12T09:18:52;2.80;99.90
10828;DHT22;5467;59.334;13.512;2023-02-12T09:21:19;2.80;99.90
10828;DHT22;5467;59.334;13.512;2023-02-12T09:23:47;2.80;99.90
10828;DHT22;5467;59.334;13.512;2023-02-12T09:26:16;2.90;99.90
10828;DHT22;5467;59.334;13.512;2023-02-12T09:28:46;2.90;99.90
10828;DHT22;5467;59.334;13.512;2023-02-12T09:31:15;2.90;99.90
10828;DHT22;5467;59.334;13.512;2023-02-12T09:33:43;2.90;99.90
10828;DHT22;5467;59.334;13.512;2023-02-12T09:36:12;3.00;99.90
10828;DHT22;5467;59.334;13.512;2023-02-12T09:38:40;3.10;99.90
10828;DHT22;5467;59.334;13.512;2023-02-12T09:41:41;3.10;99.90
10828;DHT22;5467;59.334;13.512;2023-02-12T09:44:16;3.10;99.90
10828;DHT22;5467;59.334;13.512;2023-02-12T09:46:48;3.10;99.90
10828;DHT22;5467;59.334;13.512;2023-02-12T09:49:37;3.20;99.90
10828;DHT22;5467;59.334;13.512;2023-02-12T09:52:13;3.30;99.90
10828;DHT22;5467;59.334;13.512;2023-02-12T09:54:42;3.30;99.90
10828;DHT22;5467;59.334;13.512;2023-02-12T09:57:15;3.30;99.90
10828;DHT22;5467;59.334;13.512;2023-02-12T09:59:46;3.40;99.90
10828;DHT22;5467;59.334;13.512;2023-02-12T10:02:16;3.40;99.90
10828;DHT22;5467;59.334;13.512;2023-02-12T10:04:45;3.40;99.90
10828;DHT22;5467;59.334;13.512;2023-02-12T10:07:19;3.50;99.90
10828;DHT22;5467;59.334;13.512;2023-02-12T10:10:02;3.50;99.90
10828;DHT22;5467;59.334;13.512;2023-02-12T10:12:38;3.50;99.90
10828;DHT22;5467;59.334;13.512;2023-02-12T10:15:19;3.60;99.90
10828;DHT22;5467;59.334;13.512;2023-02-12T10:17:57;3.70;99.90
10828;DHT22;5467;59.334;13.512;2023-02-12T10:20:49;3.70;99.90
10828;DHT22;5467;59.334;13.512;2023-02-12T10:26:15;3.80;99.90
10828;DHT22;5467;59.334;13.512;2023-02-12T10:28:44;3.80;99.90
10828;DHT22;5467;59.334;13.512;2023-02-12T10:31:15;3.90;99.90
10828;DHT22;5467;59.334;13.512;2023-02-12T10:33:45;4.00;99.90
10828;DHT22;5467;59.334;13.512;2023-02-12T10:36:22;4.00;99.90
10828;DHT22;5467;59.334;13.512;2023-02-12T10:38:57;4.00;99.90
10828;DHT22;5467;59.334;13.512;2023-02-12T10:41:28;4.10;99.90
10828;DHT22;5467;59.334;13.512;2023-02-12T10:43:57;4.10;99.90
10828;DHT22;5467;59.334;13.512;2023-02-12T10:46:24;4.10;99.90
10828;DHT22;5467;59.334;13.512;2023-02-12T10:48:53;4.20;99.90
10828;DHT22;5467;59.334;13.512;2023-02-12T10:51:37;4.30;99.90
10828;DHT22;5467;59.334;13.512;2023-02-12T10:54:32;4.40;99.90
10828;DHT22;5467;59.334;13.512;2023-02-12T10:57:09;4.50;99.90
10828;DHT22;5467;59.334;13.512;2023-02-12T10:59:37;4.50;99.90
10828;DHT22;5467;59.334;13.512;2023-02-12T11:02:21;4.60;99.90
10828;DHT22;5467;59.334;13.512;2023-02-12T11:04:50;4.70;99.90
10828;DHT22;5467;59.334;13.512;2023-02-12T11:07:19;4.70;99.90
10828;DHT22;5467;59.334;13.512;2023-02-12T11:09:48;4.80;99.90
10828;DHT22;5467;59.334;13.512;2023-02-12T11:12:19;4.80;99.90
10828;DHT22;5467;59.334;13.512;2023-02-12T11:14:52;5.30;99.90
10828;DHT22;5467;59.334;13.512;2023-02-12T11:17:24;5.00;99.90
10828;DHT22;5467;59.334;13.512;2023-02-12T11:20:03;5.00;99.90
10828;DHT22;5467;59.334;13.512;2023-02-12T11:22:31;5.00;99.90
10828;DHT22;5467;59.334;13.512;2023-02-12T11:25:00;5.10;99.90
10828;DHT22;5467;59.334;13.512;2023-02-12T11:27:29;5.20;99.90
10828;DHT22;5467;59.334;13.512;2023-02-12T11:30:17;5.20;99.90
10828;DHT22;5467;59.334;13.512;2023-02-12T11:32:44;5.30;99.90
10828;DHT22;5467;59.334;13.512;2023-02-12T11:35:15;5.30;99.90
10828;DHT22;5467;59.334;13.512;2023-02-12T11:37:52;5.40;99.90
10828;DHT22;5467;59.334;13.512;2023-02-12T11:40:21;5.40;99.90
10828;DHT22;5467;59.334;13.512;2023-02-12T11:42:52;5.40;99.90
10828;DHT22;5467;59.334;13.512;2023-02-12T11:45:23;5.50;99.90
10828;DHT22;5467;59.334;13.512;2023-02-12T11:47:52;5.50;99.90
10828;DHT22;5467;59.334;13.512;2023-02-12T11:50:24;5.60;99.90
10828;DHT22;5467;59.334;13.512;2023-02-12T11:52:57;5.60;99.90
10828;DHT22;5467;59.334;13.512;2023-02-12T11:55:27;5.70;99.90
10828;DHT22;5467;59.334;13.512;2023-02-12T11:58:01;5.70;99.90
10828;DHT22;5467;59.334;13.512;2023-02-12T12:00:32;5.70;99.90
10828;DHT22;5467;59.334;13.512;2023-02-12T12:03:08;5.70;99.90
10828;DHT22;5467;59.334;13.512;2023-02-12T12:05:41;5.70;99.90
10828;DHT22;5467;59.334;13.512;2023-02-12T12:08:17;5.70;99.90
10828;DHT22;5467;59.334;13.512;2023-02-12T12:10:48;5.80;99.90
10828;DHT22;5467;59.334;13.512;2023-02-12T12:13:21;5.70;99.90
10828;DHT22;5467;59.334;13.512;2023-02-12T12:15:56;5.80;99.90
10828;DHT22;5467;59.334;13.512;2023-02-12T12:18:46;5.80;99.90
10828;DHT22;5467;59.334;13.512;2023-02-12T12:21:36;5.80;99.90
10828;DHT22;5467;59.334;13.512;2023-02-12T12:24:11;5.90;99.90
10828;DHT22;5467;59.334;13.512;2023-02-12T12:26:45;6.00;99.90
10828;DHT22;5467;59.334;13.512;2023-02-12T12:29:16;6.00;99.90
10828;DHT22;5467;59.334;13.512;2023-02-12T12:31:46;6.00;99.90
10828;DHT22;5467;59.334;13.512;2023-02-12T12:34:16;6.00;99.90
10828;DHT22;5467;59.334;13.512;2023-02-12T12:37:05;6.00;99.90
10828;DHT22;5467;59.334;13.512;2023-02-12T12:39:40;6.00;99.90
10828;DHT22;5467;59.334;13.512;2023-02-12T12:42:41;5.90;99.90
10828;DHT22;5467;59.334;13.512;2023-02-12T12:45:18;5.90;99.90
10828;DHT22;5467;59.334;13.512;2023-02-12T12:47:59;5.90;99.90
10828;DHT22;5467;59.334;13.512;2023-02-12T12:50:49;5.90;99.90
10828;DHT22;5467;59.334;13.512;2023-02-12T12:53:33;6.00;99.90
10828;DHT22;5467;59.334;13.512;2023-02-12T12:56:13;5.80;99.90
10828;DHT22;5467;59.334;13.512;2023-02-12T12:58:55;5.80;99.90
10828;DHT22;5467;59.334;13.512;2023-02-12T13:01:50;5.80;99.90
10828;DHT22;5467;59.334;13.512;2023-02-12T13:04:49;5.90;99.90
10828;DHT22;5467;59.334;13.512;2023-02-12T13:07:26;5.90;99.90
10828;DHT22;5467;59.334;13.512;2023-02-12T13:10:06;5.90;99.90
10828;DHT22;5467;59.334;13.512;2023-02-12T13:12:51;6.00;99.90
10828;DHT22;5467;59.334;13.512;2023-02-12T13:15:27;6.00;99.90
10828;DHT22;5467;59.334;13.512;2023-02-12T13:18:08;6.00;99.90
10828;DHT22;5467;59.334;13.512;2023-02-12T13:20:44;5.90;99.90
10828;DHT22;5467;59.334;13.512;2023-02-12T13:23:15;5.90;99.90
10828;DHT22;5467;59.334;13.512;2023-02-12T13:25:53;5.90;99.90
10828;DHT22;5467;59.334;13.512;2023-02-12T13:28:30;5.90;99.90
10828;DHT22;5467;59.334;13.512;2023-02-12T13:31:00;5.90;99.90
10828;DHT22;5467;59.334;13.512;2023-02-12T13:33:39;6.00;99.90
10828;DHT22;5467;59.334;13.512;2023-02-12T13:36:09;6.00;99.90
10828;DHT22;5467;59.334;13.512;2023-02-12T13:38:39;5.90;99.90
10828;DHT22;5467;59.334;13.512;2023-02-12T13:41:09;5.90;99.90
10828;DHT22;5467;59.334;13.512;2023-02-12T13:43:52;5.90;99.90
10828;DHT22;5467;59.334;13.512;2023-02-12T13:46:27;6.00;99.90
10828;DHT22;5467;59.334;13.512;2023-02-12T13:49:03;5.90;99.90
10828;DHT22;5467;59.334;13.512;2023-02-12T13:51:40;6.00;99.90
10828;DHT22;5467;59.334;13.512;2023-02-12T13:57:02;5.90;99.90
10828;DHT22;5467;59.334;13.512;2023-02-12T13:59:46;5.90;99.90
10828;DHT22;5467;59.334;13.512;2023-02-12T14:05:16;5.90;99.90
10828;DHT22;5467;59.334;13.512;2023-02-12T14:07:47;6.00;99.90
10828;DHT22;5467;59.334;13.512;2023-02-12T14:10:23;5.90;99.90
10828;DHT22;5467;59.334;13.512;2023-02-12T14:12:53;5.90;99.90
10828;DHT22;5467;59.334;13.512;2023-02-12T14:15:29;5.90;99.90
10828;DHT22;5467;59.334;13.512;2023-02-12T14:18:05;5.90;99.90
10828;DHT22;5467;59.334;13.512;2023-02-12T14:20:34;5.80;99.90
10828;DHT22;5467;59.334;13.512;2023-02-12T14:23:26;5.80;99.90
10828;DHT22;5467;59.334;13.512;2023-02-12T14:26:04;5.70;99.90
10828;DHT22;5467;59.334;13.512;2023-02-12T14:28:46;5.60;99.90
10828;DHT22;5467;59.334;13.512;2023-02-12T14:31:30;5.60;99.90
10828;DHT22;5467;59.334;13.512;2023-02-12T14:40:37;5.50;99.90
10828;DHT22;5467;59.334;13.512;2023-02-12T14:43:27;5.40;99.90
10828;DHT22;5467;59.334;13.512;2023-02-12T14:45:55;5.40;99.90
10828;DHT22;5467;59.334;13.512;2023-02-12T14:48:49;5.40;99.90
10828;DHT22;5467;59.334;13.512;2023-02-12T14:51:21;5.40;99.90
10828;DHT22;5467;59.334;13.512;2023-02-12T14:53:50;5.40;99.90
10828;DHT22;5467;59.334;13.512;2023-02-12T14:56:20;5.30;99.90
10828;DHT22;5467;59.334;13.512;2023-02-12T14:58:49;5.30;99.90
10828;DHT22;5467;59.334;13.512;2023-02-12T15:01:26;5.30;99.90
10828;DHT22;5467;59.334;13.512;2023-02-12T15:03:57;5.30;99.90
10828;DHT22;5467;59.334;13.512;2023-02-12T15:06:34;5.30;99.90
10828;DHT22;5467;59.334;13.512;2023-02-12T15:09:08;5.30;99.90
10828;DHT22;5467;59.334;13.512;2023-02-12T15:11:39;5.30;99.90
10828;DHT22;5467;59.334;13.512;2023-02-12T15:14:14;5.30;99.90
10828;DHT22;5467;59.334;13.512;2023-02-12T15:16:48;5.30;99.90
10828;DHT22;5467;59.334;13.512;2023-02-12T15:19:25;5.30;99.90
10828;DHT22;5467;59.334;13.512;2023-02-12T15:21:56;5.30;99.90
10828;DHT22;5467;59.334;13.512;2023-02-12T15:24:25;5.30;99.90
10828;DHT22;5467;59.334;13.512;2023-02-12T15:26:54;5.40;99.90
10828;DHT22;5467;59.334;13.512;2023-02-12T15:29:25;5.30;99.90
10828;DHT22;5467;59.334;13.512;2023-02-12T15:31:55;5.30;99.90
10828;DHT22;5467;59.334;13.512;2023-02-12T15:34:27;5.20;99.90
10828;DHT22;5467;59.334;13.512;2023-02-12T15:36:57;5.30;99.90
10828;DHT22;5467;59.334;13.512;2023-02-12T15:39:25;5.30;99.90
10828;DHT22;5467;59.334;13.512;2023-02-12T15:41:53;5.30;99.90
10828;DHT22;5467;59.334;13.512;2023-02-12T15:44:25;5.30;99.90
10828;DHT22;5467;59.334;13.512;2023-02-12T15:47:02;5.20;99.90
10828;DHT22;5467;59.334;13.512;2023-02-12T15:49:33;5.20;99.90
10828;DHT22;5467;59.334;13.512;2023-02-12T15:52:03;5.20;99.90
10828;DHT22;5467;59.334;13.512;2023-02-12T15:54:31;5.20;99.90
10828;DHT22;5467;59.334;13.512;2023-02-12T15:56:59;5.20;99.90
10828;DHT22;5467;59.334;13.512;2023-02-12T15:59:27;5.20;99.90
10828;DHT22;5467;59.334;13.512;2023-02-12T16:01:57;5.20;99.90
10828;DHT22;5467;59.334;13.512;2023-02-12T16:04:27;5.20;99.90
10828;DHT22;5467;59.334;13.512;2023-02-12T16:06:57;5.20;99.90
10828;DHT22;5467;59.334;13.512;2023-02-12T16:09:28;5.30;99.90
10828;DHT22;5467;59.334;13.512;2023-02-12T16:11:58;5.30;99.90
10828;DHT22;5467;59.334;13.512;2023-02-12T16:14:30;5.20;99.90
10828;DHT22;5467;59.334;13.512;2023-02-12T16:16:59;5.00;99.90
10828;DHT22;5467;59.334;13.512;2023-02-12T16:19:28;4.90;99.90
10828;DHT22;5467;59.334;13.512;2023-02-12T16:22:06;4.80;99.90
10828;DHT22;5467;59.334;13.512;2023-02-12T16:24:36;4.80;99.90